createdAt,value
2023-04-04T00:00:44.500Z,103001.50
2023-04-04T00:03:11.661Z,103005.59
2023-04-04T00:05:38.853Z,102996.22
2023-04-04T00:08:06.075Z,102998.16
2023-04-04T00:10:33.273Z,102988.72
2023-04-04T00:13:00.452Z,102989.72
2023-04-04T00:15:27.776Z,102985.25
2023-04-04T00:17:54.866Z,102978.72
2023-04-04T00:20:21.953Z,102970.25
2023-04-04T00:22:49.079Z,102961.84
2023-04-04T00:25:16.131Z,102956.06
2023-04-04T00:27:43.244Z,102966.19
2023-04-04T00:30:12.294Z,102957.09
2023-04-04T00:32:39.654Z,102954.78
2023-04-04T00:35:07.234Z,102956.97
2023-04-04T00:37:34.246Z,102957.47
2023-04-04T00:40:01.511Z,102964.13
2023-04-04T00:42:28.952Z,102975.75
2023-04-04T00:44:56.221Z,102959.28
2023-04-04T00:47:25.945Z,102968.84
2023-04-04T00:49:53.270Z,102960.41
2023-04-04T00:52:20.809Z,102963.63
2023-04-04T00:54:48.044Z,102965.91
2023-04-04T00:57:15.323Z,102964.34
2023-04-04T00:59:43.148Z,102960.75
2023-04-04T01:02:10.482Z,102960.00
2023-04-04T01:04:37.900Z,102966.03
2023-04-04T01:07:05.115Z,102970.22
2023-04-04T01:09:32.869Z,102950.41
2023-04-04T01:12:00.487Z,102959.25
2023-04-04T01:14:27.849Z,102959.25
2023-04-04T01:16:55.672Z,102962.31
2023-04-04T01:19:31.070Z,102960.25
2023-04-04T01:21:59.954Z,102956.66
2023-04-04T01:24:32.720Z,102968.28
2023-04-04T01:27:00.754Z,102962.75
2023-04-04T01:29:27.944Z,102965.44
2023-04-04T01:32:13.498Z,102963.75
2023-04-04T01:34:54.532Z,102961.06
2023-04-04T01:37:30.736Z,102963.13
2023-04-04T01:40:09.510Z,102963.63
2023-04-04T01:42:37.646Z,102960.78
2023-04-04T01:45:07.740Z,102966.38
2023-04-04T01:47:41.801Z,102965.38
2023-04-04T01:50:11.032Z,102968.28
2023-04-04T01:52:38.532Z,102965.19
2023-04-04T01:55:06.445Z,102958.78
2023-04-04T01:57:33.505Z,102965.31
2023-04-04T02:00:00.550Z,102971.06
2023-04-04T02:02:27.857Z,102942.78
2023-04-04T02:04:55.427Z,102953.66
2023-04-04T02:07:23.215Z,102955.56
2023-04-04T02:09:50.335Z,102963.34
2023-04-04T02:12:17.750Z,102953.88
2023-04-04T02:14:45.210Z,102969.31
2023-04-04T02:17:12.233Z,102960.34
2023-04-04T02:19:39.332Z,102978.47
2023-04-04T02:22:06.694Z,102970.56
2023-04-04T02:24:33.780Z,102976.84
2023-04-04T02:27:00.814Z,102979.66
2023-04-04T02:29:28.079Z,102978.00
2023-04-04T02:31:55.196Z,102979.41
2023-04-04T02:34:22.274Z,102972.19
2023-04-04T02:36:49.754Z,102966.56
2023-04-04T02:39:16.865Z,102960.41
2023-04-04T02:41:43.917Z,102952.22
2023-04-04T02:44:11.086Z,102956.09
2023-04-04T02:46:38.337Z,102953.03
2023-04-04T02:49:05.974Z,102930.28
2023-04-04T02:51:33.612Z,102945.47
2023-04-04T02:54:00.867Z,102931.88
2023-04-04T02:56:28.147Z,102920.97
2023-04-04T02:58:55.288Z,102935.31
2023-04-04T03:01:22.452Z,102939.03
2023-04-04T03:03:49.735Z,102935.47
2023-04-04T03:06:16.891Z,102940.97
2023-04-04T03:08:44.002Z,102937.25
2023-04-04T03:11:11.430Z,102947.31
2023-04-04T03:13:38.532Z,102944.31
2023-04-04T03:16:08.861Z,102942.63
2023-04-04T03:18:35.989Z,102945.69
2023-04-04T03:21:03.135Z,102948.09
2023-04-04T03:23:30.164Z,102940.22
2023-04-04T03:25:57.818Z,102933.81
2023-04-04T03:28:25.008Z,102928.06
2023-04-04T03:30:52.147Z,102934.50
2023-04-04T03:33:19.590Z,102930.50
2023-04-04T03:35:46.748Z,102933.31
2023-04-04T03:38:13.894Z,102919.28
2023-04-04T03:40:42.060Z,102928.50
2023-04-04T03:43:09.282Z,102928.81
2023-04-04T03:45:37.147Z,102922.94
2023-04-04T03:48:04.376Z,102929.41
2023-04-04T03:50:31.597Z,102930.19
2023-04-04T03:52:59.330Z,102920.19
2023-04-04T03:55:26.479Z,102926.16
2023-04-04T03:57:54.037Z,102921.69
2023-04-04T04:00:21.170Z,102933.53
2023-04-04T04:02:51.144Z,102931.59
2023-04-04T04:05:18.253Z,102921.47
2023-04-04T04:07:45.667Z,102929.69
2023-04-04T04:10:14.304Z,102924.44
2023-04-04T04:12:41.840Z,102934.34
2023-04-04T04:15:09.350Z,102939.75
2023-04-04T04:17:42.412Z,102944.09
2023-04-04T04:20:10.050Z,102930.31
2023-04-04T04:22:38.001Z,102938.25
2023-04-04T04:25:05.739Z,102938.56
2023-04-04T04:27:32.815Z,102941.31
2023-04-04T04:29:59.928Z,102944.63
2023-04-04T04:32:27.552Z,102932.69
2023-04-04T04:34:55.174Z,102935.69
2023-04-04T04:37:22.988Z,102936.94
2023-04-04T04:39:50.093Z,102939.06
2023-04-04T04:42:17.245Z,102933.41
2023-04-04T04:44:44.369Z,102943.28
2023-04-04T04:47:11.465Z,102935.84
2023-04-04T04:49:38.563Z,102939.13
2023-04-04T04:52:05.719Z,102936.75
2023-04-04T04:54:32.829Z,102946.03
2023-04-04T04:57:01.547Z,102938.50
2023-04-04T04:59:29.588Z,102939.56
2023-04-04T05:01:56.714Z,102948.88
2023-04-04T05:04:23.773Z,102951.69
2023-04-04T05:06:50.866Z,102951.44
2023-04-04T05:09:18.474Z,102950.25
2023-04-04T05:11:45.522Z,102947.53
2023-04-04T05:14:12.707Z,102954.00
2023-04-04T05:16:39.927Z,102948.47
2023-04-04T05:19:07.146Z,102961.50
2023-04-04T05:21:34.260Z,102950.13
2023-04-04T05:24:01.930Z,102955.84
2023-04-04T05:26:30.304Z,102961.69
2023-04-04T05:28:59.432Z,102948.50
2023-04-04T05:31:27.502Z,102944.59
2023-04-04T05:33:56.285Z,102957.44
2023-04-04T05:36:23.419Z,102958.94
2023-04-04T05:38:50.469Z,102950.69
2023-04-04T05:41:17.621Z,102952.19
2023-04-04T05:43:44.642Z,102953.22
2023-04-04T05:46:11.898Z,102960.88
2023-04-04T05:48:39.099Z,102956.78
2023-04-04T05:51:06.200Z,102959.50
2023-04-04T05:53:33.625Z,102960.09
2023-04-04T05:56:01.350Z,102957.22
2023-04-04T05:58:29.479Z,102964.72
2023-04-04T06:00:56.530Z,102955.00
2023-04-04T06:03:23.633Z,102952.13
2023-04-04T06:05:52.914Z,102953.59
2023-04-04T06:08:20.232Z,102962.44
2023-04-04T06:10:49.804Z,102963.13
2023-04-04T06:13:17.401Z,102963.09
2023-04-04T06:15:44.588Z,102958.97
2023-04-04T06:18:11.731Z,102961.88
2023-04-04T06:20:39.041Z,102962.97
2023-04-04T06:23:06.562Z,102962.63
2023-04-04T06:25:33.792Z,102946.06
2023-04-04T06:28:00.913Z,102949.19
2023-04-04T06:30:28.603Z,102962.00
2023-04-04T06:32:55.852Z,102962.19
2023-04-04T06:35:23.028Z,102956.63
2023-04-04T06:37:55.910Z,102959.88
2023-04-04T06:40:23.313Z,102982.69
2023-04-04T06:42:52.390Z,102973.97
2023-04-04T06:45:19.645Z,102969.97
2023-04-04T06:47:47.044Z,102976.25
2023-04-04T06:50:14.263Z,102970.00
2023-04-04T06:52:41.380Z,102977.44
2023-04-04T06:55:08.649Z,102986.13
2023-04-04T06:57:36.348Z,102978.72
2023-04-04T07:00:03.738Z,102977.44
2023-04-04T07:02:31.492Z,102982.78
2023-04-04T07:04:59.843Z,102982.56
2023-04-04T07:07:26.936Z,102975.88
2023-04-04T07:09:54.105Z,102959.28
2023-04-04T07:12:21.328Z,102976.38
2023-04-04T07:14:49.197Z,102974.69
2023-04-04T07:17:24.169Z,102970.44
2023-04-04T07:19:52.430Z,102979.38
2023-04-04T07:22:19.706Z,102966.28
2023-04-04T07:24:48.275Z,102979.66
2023-04-04T07:27:15.955Z,102975.13
2023-04-04T07:29:43.332Z,102971.25
2023-04-04T07:32:10.492Z,102979.09
2023-04-04T07:34:37.620Z,102978.88
2023-04-04T07:37:04.723Z,102981.47
2023-04-04T07:39:31.949Z,102974.19
2023-04-04T07:41:59.847Z,102982.28
2023-04-04T07:44:26.907Z,102982.38
2023-04-04T07:47:06.433Z,102976.91
2023-04-04T07:49:36.790Z,102979.38
2023-04-04T07:52:04.551Z,102982.97
2023-04-04T07:54:31.907Z,102977.59
2023-04-04T07:56:59.601Z,102981.72
2023-04-04T07:59:27.274Z,102981.34
2023-04-04T08:01:55.137Z,102973.63
2023-04-04T08:04:22.402Z,102970.22
2023-04-04T08:06:49.706Z,102974.72
2023-04-04T08:09:16.721Z,102967.78
2023-04-04T08:11:43.775Z,102972.38
2023-04-04T08:14:13.394Z,102963.34
2023-04-04T08:16:40.972Z,102962.91
2023-04-04T08:19:08.329Z,102968.91
2023-04-04T08:21:35.378Z,102958.91
2023-04-04T08:24:03.006Z,102968.16
2023-04-04T08:26:30.656Z,102963.91
2023-04-04T08:28:58.257Z,102956.97
2023-04-04T08:31:25.450Z,102964.91
2023-04-04T08:33:52.590Z,102956.88
2023-04-04T08:36:20.009Z,102956.88
2023-04-04T08:38:47.696Z,102966.28
2023-04-04T08:41:16.236Z,102960.22
2023-04-04T08:43:46.470Z,102960.03
2023-04-04T08:46:15.658Z,102949.75
2023-04-04T08:48:44.729Z,102950.25
2023-04-04T08:51:14.077Z,102955.50
2023-04-04T08:53:41.361Z,102945.69
2023-04-04T08:56:09.038Z,102950.25
2023-04-04T08:58:38.963Z,102945.22
2023-04-04T09:01:06.853Z,102938.19
2023-04-04T09:03:35.168Z,102938.50
2023-04-04T09:06:04.131Z,102944.59
2023-04-04T09:08:31.466Z,102934.16
2023-04-04T09:11:03.664Z,102944.38
2023-04-04T09:13:30.996Z,102948.66
2023-04-04T09:16:00.544Z,102942.59
2023-04-04T09:18:29.887Z,102949.44
2023-04-04T09:20:56.954Z,102955.31
2023-04-04T09:23:24.965Z,102953.75
2023-04-04T09:26:03.964Z,102946.75
2023-04-04T09:28:35.399Z,102938.75
2023-04-04T09:31:05.653Z,102949.06
2023-04-04T09:33:34.324Z,102937.97
2023-04-04T09:36:11.182Z,102939.34
2023-04-04T09:38:44.245Z,102925.44
2023-04-04T09:41:14.779Z,102936.66
2023-04-04T09:43:45.006Z,102934.56
2023-04-04T09:46:12.312Z,102933.00
2023-04-04T09:48:39.523Z,102925.66
2023-04-04T09:51:07.649Z,102927.16
2023-04-04T09:53:37.069Z,102928.22
2023-04-04T09:56:06.022Z,102916.06
2023-04-04T09:58:36.262Z,102910.50
2023-04-04T10:01:08.901Z,102915.56
2023-04-04T10:03:40.666Z,102927.06
2023-04-04T10:06:10.187Z,102921.50
2023-04-04T10:08:41.479Z,102917.03
2023-04-04T10:11:11.408Z,102920.88
2023-04-04T10:13:41.770Z,102925.50
2023-04-04T10:16:10.958Z,102920.16
2023-04-04T10:18:39.417Z,102920.16
2023-04-04T10:23:42.219Z,102907.31
2023-04-04T10:26:09.922Z,102893.53
2023-04-04T10:28:37.065Z,102887.97
2023-04-04T10:31:18.612Z,102893.56
2023-04-04T10:34:11.728Z,102892.78
2023-04-04T10:36:45.340Z,102889.59
2023-04-04T10:39:27.427Z,102890.13
2023-04-04T10:41:56.529Z,102876.34
2023-04-04T10:44:33.554Z,102884.00
2023-04-04T10:47:16.803Z,102885.84
2023-04-04T10:49:45.745Z,102879.88
2023-04-04T10:52:21.404Z,102864.31
2023-04-04T10:54:54.678Z,102883.38
2023-04-04T10:57:23.384Z,102881.44
2023-04-04T11:00:03.015Z,102863.03
2023-04-04T11:02:52.390Z,102873.72
2023-04-04T11:05:22.157Z,102860.94
2023-04-04T11:08:07.459Z,102868.97
2023-04-04T11:10:43.307Z,102865.41
2023-04-04T11:13:16.172Z,102867.06
2023-04-04T11:15:56.659Z,102866.03
2023-04-04T11:18:45.356Z,102861.22
2023-04-04T11:21:20.606Z,102861.88
2023-04-04T11:23:48.901Z,102851.91
2023-04-04T11:26:30.138Z,102851.13
2023-04-04T11:29:09.740Z,102839.75
2023-04-04T11:31:45.247Z,102838.06
2023-04-04T11:34:14.187Z,102846.50
2023-04-04T11:36:44.980Z,102849.72
2023-04-04T11:39:19.820Z,102841.63
2023-04-04T11:41:52.706Z,102839.19
2023-04-04T11:44:22.581Z,102835.09
2023-04-04T11:46:55.937Z,102839.34
2023-04-04T11:49:29.669Z,102836.59
2023-04-04T11:51:57.231Z,102826.63
2023-04-04T11:54:24.815Z,102826.88
2023-04-04T11:56:52.006Z,102828.19
2023-04-04T11:59:21.463Z,102824.09
2023-04-04T12:01:52.245Z,102826.94
2023-04-04T12:04:21.330Z,102816.22
2023-04-04T12:06:53.493Z,102821.06
2023-04-04T12:09:21.045Z,102809.31
2023-04-04T12:11:48.523Z,102807.19
2023-04-04T12:14:17.386Z,102797.34
2023-04-04T12:16:47.515Z,102807.84
2023-04-04T12:19:15.089Z,102796.66
2023-04-04T12:21:42.182Z,102794.28
2023-04-04T12:24:09.849Z,102786.53
2023-04-04T12:26:39.397Z,102773.13
2023-04-04T12:29:08.339Z,102780.25
2023-04-04T12:31:37.438Z,102778.00
2023-04-04T12:34:04.868Z,102782.06
2023-04-04T12:36:33.439Z,102770.25
2023-04-04T12:39:01.585Z,102775.97
2023-04-04T12:41:33.309Z,102768.22
2023-04-04T12:44:02.753Z,102760.31
2023-04-04T12:46:39.787Z,102767.19
2023-04-04T12:49:08.257Z,102763.13
2023-04-04T12:51:36.778Z,102765.75
2023-04-04T12:54:07.522Z,102767.88
2023-04-04T12:56:37.033Z,102762.06
2023-04-04T12:59:04.930Z,102758.97
2023-04-04T13:01:33.277Z,102753.47
2023-04-04T13:04:04.278Z,102746.00
2023-04-04T13:06:33.257Z,102736.44
2023-04-04T13:09:01.460Z,102736.06
2023-04-04T13:12:02.039Z,102737.34
2023-04-04T13:15:01.930Z,102725.81
2023-04-04T13:17:48.170Z,102728.34
2023-04-04T13:20:18.724Z,102725.13
2023-04-04T13:22:46.009Z,102723.50
2023-04-04T13:25:13.130Z,102721.94
2023-04-04T13:27:41.376Z,102718.25
2023-04-04T13:30:10.358Z,102715.78
2023-04-04T13:32:38.671Z,102709.38
2023-04-04T13:35:06.576Z,102711.09
2023-04-04T13:37:33.740Z,102704.91
2023-04-04T13:40:00.807Z,102706.09
2023-04-04T13:42:30.430Z,102691.97
2023-04-04T13:44:58.326Z,102701.25
2023-04-04T13:47:27.405Z,102693.72
2023-04-04T13:49:55.072Z,102684.81
2023-04-04T13:52:22.219Z,102684.88
2023-04-04T13:54:52.124Z,102679.53
2023-04-04T13:57:19.307Z,102677.69
2023-04-04T13:59:46.511Z,102677.72
2023-04-04T14:02:13.817Z,102673.88
2023-04-04T14:04:41.122Z,102668.44
2023-04-04T14:07:08.362Z,102666.47
2023-04-04T14:09:35.553Z,102658.19
2023-04-04T14:12:02.865Z,102660.72
2023-04-04T14:14:29.926Z,102656.00
2023-04-04T14:16:57.071Z,102653.59
2023-04-04T14:19:24.197Z,102642.06
2023-04-04T14:21:51.591Z,102655.34
2023-04-04T14:24:22.169Z,102640.97
2023-04-04T14:26:49.329Z,102641.50
2023-04-04T14:29:16.561Z,102643.03
2023-04-04T14:31:43.674Z,102645.56
2023-04-04T14:34:10.816Z,102633.53
2023-04-04T14:36:37.900Z,102629.13
2023-04-04T14:39:05.074Z,102635.28
2023-04-04T14:41:32.129Z,102629.50
2023-04-04T14:44:02.537Z,102627.94
2023-04-04T14:46:34.171Z,102624.13
2023-04-04T14:49:03.035Z,102620.81
2023-04-04T14:51:32.082Z,102620.66
2023-04-04T14:54:00.500Z,102620.69
2023-04-04T14:56:27.593Z,102619.47
2023-04-04T14:58:54.881Z,102620.44
2023-04-04T15:01:22.778Z,102613.50
2023-04-04T15:03:50.048Z,102621.50
2023-04-04T15:06:17.194Z,102615.47
2023-04-04T15:08:44.254Z,102612.78
2023-04-04T15:11:13.141Z,102607.31
2023-04-04T15:13:40.456Z,102613.09
2023-04-04T15:16:07.512Z,102608.03
2023-04-04T15:18:35.218Z,102606.84
2023-04-04T15:21:05.898Z,102608.88
2023-04-04T15:23:32.992Z,102594.00
2023-04-04T15:26:00.121Z,102601.34
2023-04-04T15:28:28.536Z,102597.13
2023-04-04T15:30:56.901Z,102599.72
2023-04-04T15:33:24.053Z,102595.81
2023-04-04T15:35:51.163Z,102600.25
2023-04-04T15:38:18.273Z,102598.03
2023-04-04T15:40:45.422Z,102592.84
2023-04-04T15:43:12.608Z,102591.75
2023-04-04T15:45:40.001Z,102583.38
2023-04-04T15:48:07.239Z,102581.81
2023-04-04T15:50:34.316Z,102579.13
2023-04-04T15:53:01.548Z,102570.25
2023-04-04T15:55:29.362Z,102574.94
2023-04-04T15:57:56.454Z,102566.69
2023-04-04T16:00:23.808Z,102564.53
2023-04-04T16:02:50.954Z,102576.53
2023-04-04T16:05:18.268Z,102561.47
2023-04-04T16:07:45.733Z,102565.03
2023-04-04T16:10:12.810Z,102567.44
2023-04-04T16:12:39.973Z,102563.47
2023-04-04T16:15:08.390Z,102558.28
2023-04-04T16:17:35.714Z,102550.63
2023-04-04T16:20:03.452Z,102552.19
2023-04-04T16:22:30.719Z,102558.31
2023-04-04T16:24:58.246Z,102556.41
2023-04-04T16:27:25.449Z,102549.44
2023-04-04T16:29:52.597Z,102553.41
2023-04-04T16:32:19.706Z,102545.19
2023-04-04T16:34:46.750Z,102547.06
2023-04-04T16:37:15.744Z,102536.16
2023-04-04T16:39:43.061Z,102538.59
2023-04-04T16:42:10.415Z,102543.97
2023-04-04T16:44:37.719Z,102547.63
2023-04-04T16:47:04.845Z,102535.91
2023-04-04T16:49:32.042Z,102537.19
2023-04-04T16:52:01.992Z,102539.16
2023-04-04T16:54:31.965Z,102541.00
2023-04-04T16:57:02.533Z,102541.06
2023-04-04T16:59:29.787Z,102538.00
2023-04-04T17:01:56.972Z,102532.31
2023-04-04T17:04:24.239Z,102533.22
2023-04-04T17:06:51.486Z,102537.41
2023-04-04T17:09:18.546Z,102534.41
2023-04-04T17:11:47.023Z,102533.38
2023-04-04T17:14:14.595Z,102540.47
2023-04-04T17:16:43.212Z,102534.25
2023-04-04T17:19:10.344Z,102529.16
2023-04-04T17:21:37.398Z,102526.91
2023-04-04T17:24:04.575Z,102522.38
2023-04-04T17:26:31.688Z,102530.19
2023-04-04T17:28:59.463Z,102522.50
2023-04-04T17:31:27.367Z,102535.50
2023-04-04T17:33:54.489Z,102534.47
2023-04-04T17:36:21.668Z,102535.03
2023-04-04T17:38:49.129Z,102530.41
2023-04-04T17:41:16.363Z,102537.94
2023-04-04T17:43:43.541Z,102532.59
2023-04-04T17:46:10.896Z,102535.75
2023-04-04T17:48:38.213Z,102529.97
2023-04-04T17:51:07.094Z,102531.28
2023-04-04T17:53:35.701Z,102518.94
2023-04-04T17:56:02.861Z,102532.09
2023-04-04T17:58:30.082Z,102528.88
2023-04-04T18:00:58.444Z,102517.44
2023-04-04T18:03:26.482Z,102524.09
2023-04-04T18:05:53.763Z,102529.75
2023-04-04T18:08:22.446Z,102523.38
2023-04-04T18:10:51.607Z,102518.66
2023-04-04T18:13:21.893Z,102509.78
2023-04-04T18:15:52.575Z,102521.06
2023-04-04T18:18:21.214Z,102509.00
2023-04-04T18:20:48.366Z,102528.75
2023-04-04T18:23:16.834Z,102525.91
2023-04-04T18:25:43.948Z,102533.34
2023-04-04T18:28:11.110Z,102544.19
2023-04-04T18:30:38.993Z,102532.56
2023-04-04T18:33:06.440Z,102530.56
2023-04-04T18:35:33.653Z,102543.34
2023-04-04T18:38:00.791Z,102531.13
2023-04-04T18:40:28.371Z,102544.16
2023-04-04T18:42:55.772Z,102537.88
2023-04-04T18:45:29.980Z,102536.34
2023-04-04T18:48:01.624Z,102548.53
2023-04-04T18:50:29.207Z,102552.81
2023-04-04T18:52:56.791Z,102559.47
2023-04-04T18:55:24.354Z,102554.84
2023-04-04T18:57:51.393Z,102553.19
2023-04-04T19:00:19.222Z,102562.59
2023-04-04T19:02:46.993Z,102565.25
2023-04-04T19:05:15.404Z,102567.84
2023-04-04T19:07:44.146Z,102583.47
2023-04-04T19:10:11.584Z,102584.19
2023-04-04T19:12:38.804Z,102560.03
2023-04-04T19:15:06.944Z,102582.06
2023-04-04T19:17:34.074Z,102574.41
2023-04-04T19:20:01.625Z,102578.47
2023-04-04T19:22:28.705Z,102581.84
2023-04-04T19:24:55.719Z,102580.78
2023-04-04T19:27:22.818Z,102574.63
2023-04-04T19:29:49.931Z,102578.09
2023-04-04T19:32:19.561Z,102567.63
2023-04-04T19:34:47.223Z,102580.59
2023-04-04T19:37:14.843Z,102580.94
2023-04-04T19:39:43.631Z,102578.25
2023-04-04T19:42:11.838Z,102574.16
2023-04-04T19:44:42.972Z,102568.66
2023-04-04T19:47:10.858Z,102579.84
2023-04-04T19:49:39.687Z,102568.38
2023-04-04T19:52:08.652Z,102559.41
2023-04-04T19:54:42.960Z,102564.03
2023-04-04T19:57:18.445Z,102562.44
2023-04-04T20:00:09.603Z,102557.19
2023-04-04T20:02:48.076Z,102555.34
2023-04-04T20:05:46.849Z,102551.75
2023-04-04T20:08:14.771Z,102554.34
2023-04-04T20:10:42.585Z,102557.72
2023-04-04T20:13:10.159Z,102524.03
2023-04-04T20:15:42.945Z,102539.03
2023-04-04T20:18:10.244Z,102537.38
2023-04-04T20:20:50.691Z,102531.81
2023-04-04T20:23:18.178Z,102535.09
2023-04-04T20:25:47.092Z,102541.94
2023-04-04T20:28:28.474Z,102534.03
2023-04-04T20:30:55.783Z,102532.44
2023-04-04T20:33:35.097Z,102534.81
2023-04-04T20:36:20.299Z,102532.25
2023-04-04T20:38:48.345Z,102529.88
2023-04-04T20:41:24.290Z,102539.25
2023-04-04T20:43:52.643Z,102524.16
2023-04-04T20:46:21.562Z,102534.81
2023-04-04T20:48:50.665Z,102529.50
2023-04-04T20:51:23.907Z,102532.97
2023-04-04T20:53:52.249Z,102528.81
2023-04-04T20:56:47.637Z,102532.25
2023-04-04T20:59:45.190Z,102529.31
2023-04-04T21:02:18.377Z,102515.50
2023-04-04T21:04:49.486Z,102523.59
2023-04-04T21:07:35.131Z,102535.66
2023-04-04T21:10:03.156Z,102531.50
2023-04-04T21:12:30.231Z,102531.59
2023-04-04T21:14:57.292Z,102537.03
2023-04-04T21:17:24.412Z,102539.59
2023-04-04T21:19:52.100Z,102535.44
2023-04-04T21:22:19.681Z,102525.75
2023-04-04T21:24:46.760Z,102525.56
2023-04-04T21:27:34.622Z,102519.78
2023-04-04T21:30:01.775Z,102509.91
2023-04-04T21:32:32.063Z,102523.06
2023-04-04T21:34:59.952Z,102521.06
2023-04-04T21:37:27.043Z,102518.91
2023-04-04T21:39:57.053Z,102502.72
2023-04-04T21:42:24.332Z,102504.00
2023-04-04T21:44:51.441Z,102517.72
2023-04-04T21:47:18.996Z,102512.13
2023-04-04T21:49:46.168Z,102506.66
2023-04-04T21:52:14.130Z,102504.69
2023-04-04T21:54:41.169Z,102516.06
2023-04-04T21:57:08.256Z,102505.28
2023-04-04T21:59:35.593Z,102506.75
2023-04-04T22:02:02.880Z,102498.66
2023-04-04T22:04:29.990Z,102493.31
2023-04-04T22:07:00.473Z,102494.72
2023-04-04T22:09:29.629Z,102497.75
2023-04-04T22:11:59.426Z,102493.94
2023-04-04T22:14:27.350Z,102476.22
2023-04-04T22:16:58.907Z,102488.50
2023-04-04T22:19:26.157Z,102485.72
2023-04-04T22:21:53.986Z,102491.44
2023-04-04T22:24:21.290Z,102485.88
2023-04-04T22:26:50.463Z,102489.38
2023-04-04T22:29:17.754Z,102495.19
2023-04-04T22:31:45.073Z,102485.50
2023-04-04T22:34:14.634Z,102478.38
2023-04-04T22:36:43.679Z,102486.66
2023-04-04T22:39:10.755Z,102468.56
2023-04-04T22:41:38.342Z,102490.00
2023-04-04T22:44:05.545Z,102487.25
2023-04-04T22:46:32.595Z,102479.00
2023-04-04T22:49:06.983Z,102478.81
2023-04-04T22:51:44.121Z,102488.88
2023-04-04T22:54:15.538Z,102489.44
2023-04-04T22:56:43.128Z,102481.53
2023-04-04T22:59:10.865Z,102484.47
2023-04-04T23:01:38.249Z,102496.31
2023-04-04T23:04:05.739Z,102493.31
2023-04-04T23:06:32.929Z,102495.47
2023-04-04T23:09:01.356Z,102496.16
2023-04-04T23:11:32.414Z,102488.72
2023-04-04T23:14:00.611Z,102501.66
2023-04-04T23:16:28.889Z,102495.53
2023-04-04T23:18:56.191Z,102494.19
2023-04-04T23:21:23.323Z,102475.28
2023-04-04T23:23:50.829Z,102494.13
2023-04-04T23:26:18.124Z,102484.34
2023-04-04T23:28:45.431Z,102482.34
2023-04-04T23:31:12.577Z,102483.22
2023-04-04T23:33:39.637Z,102485.69
2023-04-04T23:36:07.300Z,102474.00
2023-04-04T23:38:34.861Z,102479.56
2023-04-04T23:41:01.970Z,102474.00
2023-04-04T23:43:29.772Z,102473.09
2023-04-04T23:45:56.902Z,102464.44
2023-04-04T23:48:24.105Z,102467.34
2023-04-04T23:50:54.384Z,102472.56
2023-04-04T23:53:21.601Z,102479.16
2023-04-04T23:55:48.919Z,102466.78
2023-04-04T23:58:16.954Z,102473.47
